sensor_id;sensor_type;location;lat;lon;timestamp;pressure;altitude;pressure_sealevel;temperature;humidity
5872;BME280;2962;51.312;7.378;2023-10-19T00:00:04;95417.16;;;9.11;100.00
5872;BME280;2962;51.312;7.378;2023-10-19T00:02:53;95408.22;;;9.10;100.00
5872;BME280;2962;51.312;7.378;2023-10-19T00:05:20;95423.72;;;9.13;100.00
5872;BME280;2962;51.312;7.378;2023-10-19T00:07:45;95375.28;;;9.08;100.00
5872;BME280;2962;51.312;7.378;2023-10-19T00:10:11;95402.78;;;9.10;100.00
5872;BME280;2962;51.312;7.378;2023-10-19T00:12:40;95420.19;;;9.16;100.00
5872;BME280;2962;51.312;7.378;2023-10-19T00:15:06;95409.66;;;9.18;100.00
5872;BME280;2962;51.312;7.378;2023-10-19T00:17:31;95395.28;;;9.21;100.00
5872;BME280;2962;51.312;7.378;2023-10-19T00:19:57;95408.06;;;9.24;100.00
5872;BME280;2962;51.312;7.378;2023-10-19T00:22:30;95397.56;;;9.26;100.00
5872;BME280;2962;51.312;7.378;2023-10-19T00:25:00;95403.75;;;9.27;100.00
5872;BME280;2962;51.312;7.378;2023-10-19T00:27:27;95395.94;;;9.29;100.00
5872;BME280;2962;51.312;7.378;2023-10-19T00:29:52;95397.91;;;9.28;100.00
5872;BME280;2962;51.312;7.378;2023-10-19T00:32:20;95405.97;;;9.36;100.00
5872;BME280;2962;51.312;7.378;2023-10-19T00:34:50;95387.34;;;9.34;100.00
5872;BME280;2962;51.312;7.378;2023-10-19T00:37:17;95389.31;;;9.30;100.00
5872;BME280;2962;51.312;7.378;2023-10-19T00:39:45;95396.28;;;9.35;100.00
5872;BME280;2962;51.312;7.378;2023-10-19T00:42:19;95407.81;;;9.42;100.00
5872;BME280;2962;51.312;7.378;2023-10-19T00:44:49;95405.47;;;9.41;100.00
5872;BME280;2962;51.312;7.378;2023-10-19T00:47:15;95419.78;;;9.45;100.00
5872;BME280;2962;51.312;7.378;2023-10-19T00:49:45;95393.00;;;9.47;100.00
5872;BME280;2962;51.312;7.378;2023-10-19T00:52:11;95411.28;;;9.43;100.00
5872;BME280;2962;51.312;7.378;2023-10-19T00:54:39;95404.19;;;9.49;100.00
5872;BME280;2962;51.312;7.378;2023-10-19T00:57:16;95403.38;;;9.52;100.00
5872;BME280;2962;51.312;7.378;2023-10-19T00:59:45;95403.38;;;9.52;100.00
5872;BME280;2962;51.312;7.378;2023-10-19T01:02:25;95394.00;;;9.57;100.00
5872;BME280;2962;51.312;7.378;2023-10-19T01:04:54;95379.41;;;9.70;100.00
5872;BME280;2962;51.312;7.378;2023-10-19T01:07:27;95388.25;;;9.78;100.00
5872;BME280;2962;51.312;7.378;2023-10-19T01:09:57;95400.53;;;9.86;100.00
5872;BME280;2962;51.312;7.378;2023-10-19T01:12:24;95391.63;;;9.86;100.00
5872;BME280;2962;51.312;7.378;2023-10-19T01:15:15;95390.78;;;9.89;100.00
5872;BME280;2962;51.312;7.378;2023-10-19T01:17:54;95365.50;;;9.92;100.00
5872;BME280;2962;51.312;7.378;2023-10-19T01:20:24;95394.22;;;9.93;100.00
5872;BME280;2962;51.312;7.378;2023-10-19T01:23:04;95377.84;;;9.96;100.00
5872;BME280;2962;51.312;7.378;2023-10-19T01:28:07;95376.38;;;9.92;100.00
5872;BME280;2962;51.312;7.378;2023-10-19T01:30:33;95384.81;;;9.97;100.00
5872;BME280;2962;51.312;7.378;2023-10-19T01:32:59;95386.28;;;10.02;100.00
5872;BME280;2962;51.312;7.378;2023-10-19T01:35:24;95393.25;;;10.03;100.00
5872;BME280;2962;51.312;7.378;2023-10-19T01:37:50;95393.19;;;10.07;100.00
5872;BME280;2962;51.312;7.378;2023-10-19T01:40:15;95393.56;;;10.09;100.00
5872;BME280;2962;51.312;7.378;2023-10-19T01:42:45;95390.03;;;10.12;100.00
5872;BME280;2962;51.312;7.378;2023-10-19T01:45:10;95387.63;;;10.14;100.00
5872;BME280;2962;51.312;7.378;2023-10-19T01:47:36;95365.75;;;10.21;100.00
5872;BME280;2962;51.312;7.378;2023-10-19T01:50:02;95392.03;;;10.31;100.00
5872;BME280;2962;51.312;7.378;2023-10-19T01:52:28;95387.78;;;10.30;100.00
5872;BME280;2962;51.312;7.378;2023-10-19T01:54:53;95372.44;;;10.40;100.00
5872;BME280;2962;51.312;7.378;2023-10-19T01:57:25;95373.91;;;10.44;100.00
5872;BME280;2962;51.312;7.378;2023-10-19T01:59:51;95379.28;;;10.48;100.00
5872;BME280;2962;51.312;7.378;2023-10-19T02:02:16;95378.94;;;10.46;100.00
5872;BME280;2962;51.312;7.378;2023-10-19T02:04:41;95370.34;;;10.47;100.00
5872;BME280;2962;51.312;7.378;2023-10-19T02:07:07;95385.91;;;10.47;100.00
5872;BME280;2962;51.312;7.378;2023-10-19T02:09:38;95389.47;;;10.44;100.00
5872;BME280;2962;51.312;7.378;2023-10-19T02:12:04;95370.78;;;10.46;100.00
5872;BME280;2962;51.312;7.378;2023-10-19T02:14:31;95354.84;;;10.44;100.00
5872;BME280;2962;51.312;7.378;2023-10-19T02:16:59;95359.72;;;10.53;100.00
5872;BME280;2962;51.312;7.378;2023-10-19T02:19:26;95358.06;;;10.59;100.00
5872;BME280;2962;51.312;7.378;2023-10-19T02:21:57;95352.28;;;10.57;100.00
5872;BME280;2962;51.312;7.378;2023-10-19T02:24:24;95361.41;;;10.67;100.00
5872;BME280;2962;51.312;7.378;2023-10-19T02:26:52;95337.09;;;10.76;100.00
5872;BME280;2962;51.312;7.378;2023-10-19T02:29:17;95350.31;;;10.78;100.00
5872;BME280;2962;51.312;7.378;2023-10-19T02:31:44;95355.00;;;10.77;100.00
5872;BME280;2962;51.312;7.378;2023-10-19T02:34:12;95349.13;;;10.79;100.00
5872;BME280;2962;51.312;7.378;2023-10-19T02:36:40;95349.69;;;10.70;100.00
5872;BME280;2962;51.312;7.378;2023-10-19T02:39:08;95355.06;;;10.73;100.00
5872;BME280;2962;51.312;7.378;2023-10-19T02:41:52;95357.28;;;10.79;100.00
5872;BME280;2962;51.312;7.378;2023-10-19T02:44:20;95359.59;;;10.80;100.00
5872;BME280;2962;51.312;7.378;2023-10-19T02:46:52;95356.03;;;10.83;100.00
5872;BME280;2962;51.312;7.378;2023-10-19T02:49:22;95366.28;;;10.75;100.00
5872;BME280;2962;51.312;7.378;2023-10-19T02:51:49;95354.94;;;10.81;100.00
5872;BME280;2962;51.312;7.378;2023-10-19T02:54:17;95353.38;;;10.80;100.00
5872;BME280;2962;51.312;7.378;2023-10-19T02:56:47;95357.56;;;10.84;100.00
5872;BME280;2962;51.312;7.378;2023-10-19T02:59:14;95347.09;;;10.83;100.00
5872;BME280;2962;51.312;7.378;2023-10-19T03:01:41;95356.44;;;10.82;100.00
5872;BME280;2962;51.312;7.378;2023-10-19T03:04:09;95330.41;;;10.81;100.00
5872;BME280;2962;51.312;7.378;2023-10-19T03:06:38;95345.06;;;10.87;100.00
5872;BME280;2962;51.312;7.378;2023-10-19T03:09:04;95351.88;;;10.95;100.00
5872;BME280;2962;51.312;7.378;2023-10-19T03:11:42;95343.88;;;10.88;100.00
5872;BME280;2962;51.312;7.378;2023-10-19T03:14:09;95344.44;;;10.79;100.00
5872;BME280;2962;51.312;7.378;2023-10-19T03:16:36;95350.25;;;10.81;100.00
5872;BME280;2962;51.312;7.378;2023-10-19T03:19:02;95343.59;;;10.82;100.00
5872;BME280;2962;51.312;7.378;2023-10-19T03:21:29;95335.28;;;10.89;100.00
5872;BME280;2962;51.312;7.378;2023-10-19T03:23:58;95338.06;;;10.86;100.00
5872;BME280;2962;51.312;7.378;2023-10-19T03:26:30;95336.19;;;10.83;100.00
5872;BME280;2962;51.312;7.378;2023-10-19T03:29:02;95339.59;;;10.87;100.00
5872;BME280;2962;51.312;7.378;2023-10-19T03:31:37;95342.69;;;10.89;100.00
5872;BME280;2962;51.312;7.378;2023-10-19T03:34:11;95339.13;;;10.92;100.00
5872;BME280;2962;51.312;7.378;2023-10-19T03:36:43;95345.25;;;10.96;100.00
5872;BME280;2962;51.312;7.378;2023-10-19T03:39:09;95332.47;;;10.93;100.00
5872;BME280;2962;51.312;7.378;2023-10-19T03:41:39;95343.09;;;10.87;100.00
5872;BME280;2962;51.312;7.378;2023-10-19T03:44:08;95340.16;;;10.98;100.00
5872;BME280;2962;51.312;7.378;2023-10-19T03:46:39;95327.72;;;10.97;100.00
5872;BME280;2962;51.312;7.378;2023-10-19T03:49:18;95331.56;;;10.99;100.00
5872;BME280;2962;51.312;7.378;2023-10-19T03:51:45;95311.59;;;10.86;100.00
5872;BME280;2962;51.312;7.378;2023-10-19T03:54:46;95322.72;;;10.95;100.00
5872;BME280;2962;51.312;7.378;2023-10-19T03:57:14;95315.97;;;11.00;100.00
5872;BME280;2962;51.312;7.378;2023-10-19T03:59:50;95324.78;;;11.08;100.00
5872;BME280;2962;51.312;7.378;2023-10-19T04:02:23;95318.38;;;11.14;100.00
5872;BME280;2962;51.312;7.378;2023-10-19T04:04:49;95314.34;;;11.03;100.00
5872;BME280;2962;51.312;7.378;2023-10-19T04:07:18;95320.41;;;11.10;100.00
5872;BME280;2962;51.312;7.378;2023-10-19T04:09:48;95315.16;;;11.03;100.00
5872;BME280;2962;51.312;7.378;2023-10-19T04:12:23;95308.13;;;11.02;100.00
5872;BME280;2962;51.312;7.378;2023-10-19T04:14:48;95305.00;;;11.04;100.00
5872;BME280;2962;51.312;7.378;2023-10-19T04:17:14;95305.91;;;10.97;100.00
5872;BME280;2962;51.312;7.378;2023-10-19T04:19:39;95307.81;;;11.00;100.00
5872;BME280;2962;51.312;7.378;2023-10-19T04:22:04;95296.72;;;10.91;100.00
5872;BME280;2962;51.312;7.378;2023-10-19T04:24:30;95306.47;;;11.08;100.00
5872;BME280;2962;51.312;7.378;2023-10-19T04:26:58;95306.47;;;11.08;100.00
5872;BME280;2962;51.312;7.378;2023-10-19T04:29:24;95309.09;;;11.12;100.00
5872;BME280;2962;51.312;7.378;2023-10-19T04:31:52;95295.13;;;11.10;100.00
5872;BME280;2962;51.312;7.378;2023-10-19T04:34:24;95303.41;;;11.22;100.00
5872;BME280;2962;51.312;7.378;2023-10-19T04:36:52;95302.22;;;11.07;100.00
5872;BME280;2962;51.312;7.378;2023-10-19T04:39:18;95306.47;;;11.08;100.00
5872;BME280;2962;51.312;7.378;2023-10-19T04:41:45;95301.84;;;11.05;100.00
5872;BME280;2962;51.312;7.378;2023-10-19T04:44:10;95308.81;;;11.06;100.00
5872;BME280;2962;51.312;7.378;2023-10-19T04:46:36;95298.59;;;11.10;100.00
5872;BME280;2962;51.312;7.378;2023-10-19T04:49:02;95300.16;;;11.11;100.00
5872;BME280;2962;51.312;7.378;2023-10-19T04:51:28;95297.25;;;11.02;100.00
5872;BME280;2962;51.312;7.378;2023-10-19T04:53:54;95287.97;;;10.99;100.00
5872;BME280;2962;51.312;7.378;2023-10-19T04:56:20;95288.97;;;10.89;100.00
5872;BME280;2962;51.312;7.378;2023-10-19T04:58:45;95284.78;;;10.85;100.00
5872;BME280;2962;51.312;7.378;2023-10-19T05:01:12;95291.94;;;10.95;100.00
5872;BME280;2962;51.312;7.378;2023-10-19T05:03:37;95284.56;;;10.95;100.00
5872;BME280;2962;51.312;7.378;2023-10-19T05:06:03;95288.13;;;10.92;100.00
5872;BME280;2962;51.312;7.378;2023-10-19T05:08:28;95285.94;;;11.04;100.00
5872;BME280;2962;51.312;7.378;2023-10-19T05:10:55;95280.06;;;11.05;100.00
5872;BME280;2962;51.312;7.378;2023-10-19T05:13:23;95279.00;;;10.99;100.00
5872;BME280;2962;51.312;7.378;2023-10-19T05:15:50;95293.34;;;11.03;100.00
5872;BME280;2962;51.312;7.378;2023-10-19T05:18:15;95294.25;;;10.96;100.00
5872;BME280;2962;51.312;7.378;2023-10-19T05:20:41;95291.88;;;10.98;100.00
5872;BME280;2962;51.312;7.378;2023-10-19T05:23:07;95277.38;;;10.85;100.00
5872;BME280;2962;51.312;7.378;2023-10-19T05:25:34;95295.09;;;10.93;100.00
5872;BME280;2962;51.312;7.378;2023-10-19T05:27:59;95305.84;;;11.00;100.00
5872;BME280;2962;51.312;7.378;2023-10-19T05:30:25;95303.97;;;10.97;100.00
5872;BME280;2962;51.312;7.378;2023-10-19T05:32:51;95310.00;;;10.89;100.00
5872;BME280;2962;51.312;7.378;2023-10-19T05:35:16;95303.72;;;10.92;100.00
5872;BME280;2962;51.312;7.378;2023-10-19T05:37:48;95312.22;;;10.94;100.00
5872;BME280;2962;51.312;7.378;2023-10-19T05:40:14;95291.34;;;10.87;100.00
5872;BME280;2962;51.312;7.378;2023-10-19T05:42:40;95308.47;;;10.88;100.00
5872;BME280;2962;51.312;7.378;2023-10-19T05:45:05;95302.16;;;10.91;100.00
5872;BME280;2962;51.312;7.378;2023-10-19T05:47:31;95294.75;;;10.91;100.00
5872;BME280;2962;51.312;7.378;2023-10-19T05:49:56;95295.72;;;11.01;100.00
5872;BME280;2962;51.312;7.378;2023-10-19T05:52:22;95311.28;;;11.00;100.00
5872;BME280;2962;51.312;7.378;2023-10-19T05:54:48;95300.47;;;10.97;100.00
5872;BME280;2962;51.312;7.378;2023-10-19T05:57:15;95307.03;;;10.99;100.00
5872;BME280;2962;51.312;7.378;2023-10-19T05:59:40;95307.81;;;11.00;100.00
5872;BME280;2962;51.312;7.378;2023-10-19T06:02:06;95305.69;;;11.08;100.00
5872;BME280;2962;51.312;7.378;2023-10-19T06:04:33;95302.28;;;11.04;100.00
5872;BME280;2962;51.312;7.378;2023-10-19T06:06:58;95305.94;;;11.13;100.00
5872;BME280;2962;51.312;7.378;2023-10-19T06:09:23;95307.22;;;11.09;100.00
5872;BME280;2962;51.312;7.378;2023-10-19T06:11:55;95311.91;;;11.08;100.00
5872;BME280;2962;51.312;7.378;2023-10-19T06:14:20;95311.06;;;11.11;100.00
5872;BME280;2962;51.312;7.378;2023-10-19T06:16:45;95319.16;;;11.15;100.00
5872;BME280;2962;51.312;7.378;2023-10-19T06:19:10;95322.56;;;11.19;100.00
5872;BME280;2962;51.312;7.378;2023-10-19T06:21:36;95321.78;;;11.18;100.00
5872;BME280;2962;51.312;7.378;2023-10-19T06:24:01;95322.28;;;11.13;100.00
5872;BME280;2962;51.312;7.378;2023-10-19T06:26:28;95325.63;;;11.21;100.00
5872;BME280;2962;51.312;7.378;2023-10-19T06:28:53;95333.03;;;11.20;100.00
5872;BME280;2962;51.312;7.378;2023-10-19T06:31:28;95323.25;;;11.23;100.00
5872;BME280;2962;51.312;7.378;2023-10-19T06:33:54;95308.59;;;11.17;100.00
5872;BME280;2962;51.312;7.378;2023-10-19T06:36:19;95306.22;;;11.19;100.00
5872;BME280;2962;51.312;7.378;2023-10-19T06:38:45;95312.44;;;11.19;100.00
5872;BME280;2962;51.312;7.378;2023-10-19T06:41:14;95324.78;;;11.24;100.00
5872;BME280;2962;51.312;7.378;2023-10-19T06:43:40;95325.91;;;11.27;100.00
5872;BME280;2962;51.312;7.378;2023-10-19T06:46:06;95331.53;;;11.36;100.00
5872;BME280;2962;51.312;7.378;2023-10-19T06:48:32;95324.56;;;11.35;100.00
5872;BME280;2962;51.312;7.378;2023-10-19T06:50:57;95326.16;;;11.32;100.00
5872;BME280;2962;51.312;7.378;2023-10-19T06:53:23;95343.66;;;11.51;100.00
5872;BME280;2962;51.312;7.378;2023-10-19T06:55:48;95328.22;;;11.44;100.00
5872;BME280;2962;51.312;7.378;2023-10-19T06:58:13;95330.59;;;11.42;100.00
5872;BME280;2962;51.312;7.378;2023-10-19T07:00:40;95332.22;;;11.56;100.00
5872;BME280;2962;51.312;7.378;2023-10-19T07:03:10;95335.47;;;11.67;100.00
5872;BME280;2962;51.312;7.378;2023-10-19T07:05:35;95344.00;;;11.69;100.00
5872;BME280;2962;51.312;7.378;2023-10-19T07:08:00;95327.78;;;11.62;100.00
5872;BME280;2962;51.312;7.378;2023-10-19T07:10:27;95348.25;;;11.70;100.00
5872;BME280;2962;51.312;7.378;2023-10-19T07:12:54;95356.25;;;11.78;100.00
5872;BME280;2962;51.312;7.378;2023-10-19T07:15:20;95346.38;;;11.67;100.00
5872;BME280;2962;51.312;7.378;2023-10-19T07:17:48;95349.44;;;11.69;100.00
5872;BME280;2962;51.312;7.378;2023-10-19T07:20:15;95350.81;;;11.78;100.00
5872;BME280;2962;51.312;7.378;2023-10-19T07:23:01;95351.34;;;11.72;100.00
5872;BME280;2962;51.312;7.378;2023-10-19T07:25:47;95350.03;;;11.77;100.00
5872;BME280;2962;51.312;7.378;2023-10-19T07:28:14;95351.34;;;11.72;100.00
5872;BME280;2962;51.312;7.378;2023-10-19T07:30:40;95358.63;;;11.76;100.00
5872;BME280;2962;51.312;7.378;2023-10-19T07:33:07;95353.88;;;11.80;100.00
5872;BME280;2962;51.312;7.378;2023-10-19T07:35:36;95339.03;;;11.64;100.00
5872;BME280;2962;51.312;7.378;2023-10-19T07:38:07;95358.63;;;11.76;100.00
5872;BME280;2962;51.312;7.378;2023-10-19T07:40:34;95371.72;;;11.84;100.00
5872;BME280;2962;51.312;7.378;2023-10-19T07:42:59;95359.00;;;11.78;100.00
5872;BME280;2962;51.312;7.378;2023-10-19T07:45:24;95379.47;;;11.86;100.00
5872;BME280;2962;51.312;7.378;2023-10-19T07:47:51;95380.00;;;11.97;100.00
5872;BME280;2962;51.312;7.378;2023-10-19T07:50:16;95374.19;;;11.95;100.00
5872;BME280;2962;51.312;7.378;2023-10-19T07:52:50;95375.97;;;12.02;100.00
5872;BME280;2962;51.312;7.378;2023-10-19T07:55:20;95357.53;;;12.06;100.00
5872;BME280;2962;51.312;7.378;2023-10-19T07:57:48;95367.63;;;12.09;100.00
5872;BME280;2962;51.312;7.378;2023-10-19T08:00:16;95354.31;;;12.11;100.00
5872;BME280;2962;51.312;7.378;2023-10-19T08:02:43;95362.06;;;12.12;100.00
5872;BME280;2962;51.312;7.378;2023-10-19T08:05:11;95369.44;;;12.28;100.00
5872;BME280;2962;51.312;7.378;2023-10-19T08:07:37;95365.69;;;12.22;100.00
5872;BME280;2962;51.312;7.378;2023-10-19T08:10:06;95379.63;;;12.28;100.00
5872;BME280;2962;51.312;7.378;2023-10-19T08:12:34;95374.09;;;12.44;100.00
5872;BME280;2962;51.312;7.378;2023-10-19T08:15:01;95354.22;;;12.43;100.00
5872;BME280;2962;51.312;7.378;2023-10-19T08:17:26;95358.38;;;12.48;100.00
5872;BME280;2962;51.312;7.378;2023-10-19T08:19:51;95365.88;;;12.60;100.00
5872;BME280;2962;51.312;7.378;2023-10-19T08:22:17;95378.16;;;12.68;100.00
5872;BME280;2962;51.312;7.378;2023-10-19T08:24:42;95366.59;;;12.77;100.00
5872;BME280;2962;51.312;7.378;2023-10-19T08:27:15;95359.34;;;12.70;100.00
5872;BME280;2962;51.312;7.378;2023-10-19T08:29:42;95354.34;;;12.82;100.00
5872;BME280;2962;51.312;7.378;2023-10-19T08:32:08;95354.34;;;12.82;100.00
5872;BME280;2962;51.312;7.378;2023-10-19T08:34:35;95373.09;;;12.96;100.00
5872;BME280;2962;51.312;7.378;2023-10-19T08:37:04;95364.03;;;12.99;100.00
5872;BME280;2962;51.312;7.378;2023-10-19T08:39:32;95373.19;;;13.05;100.00
5872;BME280;2962;51.312;7.378;2023-10-19T08:42:05;95360.72;;;12.91;100.00
5872;BME280;2962;51.312;7.378;2023-10-19T08:44:33;95355.03;;;12.99;100.00
5872;BME280;2962;51.312;7.378;2023-10-19T08:47:00;95359.84;;;12.94;100.00
5872;BME280;2962;51.312;7.378;2023-10-19T08:49:26;95358.22;;;13.10;100.00
5872;BME280;2962;51.312;7.378;2023-10-19T08:51:53;95358.25;;;13.23;100.00
5872;BME280;2962;51.312;7.378;2023-10-19T08:54:19;95367.25;;;13.49;100.00
5872;BME280;2962;51.312;7.378;2023-10-19T08:56:45;95366.94;;;13.72;100.00
5872;BME280;2962;51.312;7.378;2023-10-19T08:59:13;95362.53;;;13.75;100.00
5872;BME280;2962;51.312;7.378;2023-10-19T09:01:40;95351.44;;;13.91;100.00
5872;BME280;2962;51.312;7.378;2023-10-19T09:04:10;95369.19;;;13.86;100.00
5872;BME280;2962;51.312;7.378;2023-10-19T09:06:35;95352.47;;;13.72;100.00
5872;BME280;2962;51.312;7.378;2023-10-19T09:09:10;95354.97;;;13.79;100.00
5872;BME280;2962;51.312;7.378;2023-10-19T09:11:48;95347.63;;;13.76;100.00
5872;BME280;2962;51.312;7.378;2023-10-19T09:14:14;95350.97;;;13.58;100.00
5872;BME280;2962;51.312;7.378;2023-10-19T09:16:54;95355.22;;;13.46;100.00
5872;BME280;2962;51.312;7.378;2023-10-19T09:19:21;95353.91;;;13.38;100.00
5872;BME280;2962;51.312;7.378;2023-10-19T09:21:46;95351.28;;;13.34;100.00
5872;BME280;2962;51.312;7.378;2023-10-19T09:24:11;95343.94;;;13.44;100.00
5872;BME280;2962;51.312;7.378;2023-10-19T09:26:37;95355.88;;;13.50;100.00
5872;BME280;2962;51.312;7.378;2023-10-19T09:29:02;95341.56;;;13.46;100.00
5872;BME280;2962;51.312;7.378;2023-10-19T09:31:28;95334.13;;;13.34;100.00
5872;BME280;2962;51.312;7.378;2023-10-19T09:33:56;95347.34;;;13.48;100.00
5872;BME280;2962;51.312;7.378;2023-10-19T09:36:24;95350.41;;;13.63;100.00
5872;BME280;2962;51.312;7.378;2023-10-19T09:38:51;95358.84;;;13.68;100.00
5872;BME280;2962;51.312;7.378;2023-10-19T09:41:18;95340.22;;;13.76;100.00
5872;BME280;2962;51.312;7.378;2023-10-19T09:43:46;95345.19;;;14.03;100.00
5872;BME280;2962;51.312;7.378;2023-10-19T09:46:21;95346.91;;;14.23;100.00
5872;BME280;2962;51.312;7.378;2023-10-19T09:48:46;95333.16;;;14.35;100.00
5872;BME280;2962;51.312;7.378;2023-10-19T09:51:14;95337.81;;;14.48;100.00
5872;BME280;2962;51.312;7.378;2023-10-19T09:53:41;95337.94;;;14.57;100.00
5872;BME280;2962;51.312;7.378;2023-10-19T09:56:13;95321.59;;;14.53;100.00
5872;BME280;2962;51.312;7.378;2023-10-19T09:58:45;95324.03;;;14.73;100.00
5872;BME280;2962;51.312;7.378;2023-10-19T10:01:11;95314.06;;;15.20;100.00
5872;BME280;2962;51.312;7.378;2023-10-19T10:03:50;95320.34;;;15.29;100.00
5872;BME280;2962;51.312;7.378;2023-10-19T10:09:20;95341.53;;;14.76;100.00
5872;BME280;2962;51.312;7.378;2023-10-19T10:11:51;95327.13;;;14.62;100.00
5872;BME280;2962;51.312;7.378;2023-10-19T10:14:25;95322.81;;;14.74;100.00
5872;BME280;2962;51.312;7.378;2023-10-19T10:17:03;95323.69;;;15.24;100.00
5872;BME280;2962;51.312;7.378;2023-10-19T10:19:28;95313.69;;;15.80;100.00
5872;BME280;2962;51.312;7.378;2023-10-19T10:22:23;95313.00;;;16.53;100.00
5872;BME280;2962;51.312;7.378;2023-10-19T10:24:54;95315.38;;;17.06;100.00
5872;BME280;2962;51.312;7.378;2023-10-19T10:27:21;95297.94;;;17.51;100.00
5872;BME280;2962;51.312;7.378;2023-10-19T10:29:57;95296.59;;;17.80;100.00
5872;BME280;2962;51.312;7.378;2023-10-19T10:32:59;95293.59;;;18.17;100.00
5872;BME280;2962;51.312;7.378;2023-10-19T10:38:09;95283.53;;;17.23;100.00
5872;BME280;2962;51.312;7.378;2023-10-19T10:40:48;95300.75;;;16.63;100.00
5872;BME280;2962;51.312;7.378;2023-10-19T10:43:14;95288.81;;;17.03;100.00
5872;BME280;2962;51.312;7.378;2023-10-19T10:45:40;95298.88;;;17.81;100.00
5872;BME280;2962;51.312;7.378;2023-10-19T10:48:17;95288.03;;;18.26;100.00
5872;BME280;2962;51.312;7.378;2023-10-19T10:50:43;95289.78;;;18.68;100.00
5872;BME280;2962;51.312;7.378;2023-10-19T10:53:13;95287.81;;;18.68;100.00
5872;BME280;2962;51.312;7.378;2023-10-19T10:55:40;95289.56;;;17.70;100.00
5872;BME280;2962;51.312;7.378;2023-10-19T10:58:06;95298.88;;;16.97;100.00
5872;BME280;2962;51.312;7.378;2023-10-19T11:00:31;95284.44;;;16.50;100.00
5872;BME280;2962;51.312;7.378;2023-10-19T11:03:01;95300.63;;;16.21;100.00
5872;BME280;2962;51.312;7.378;2023-10-19T11:05:28;95297.09;;;16.48;100.00
5872;BME280;2962;51.312;7.378;2023-10-19T11:08:11;95300.41;;;17.07;100.00
5872;BME280;2962;51.312;7.378;2023-10-19T11:10:42;95294.06;;;17.58;100.00
5872;BME280;2962;51.312;7.378;2023-10-19T11:13:11;95301.28;;;17.89;100.00
5872;BME280;2962;51.312;7.378;2023-10-19T11:15:38;95290.69;;;17.63;100.00
5872;BME280;2962;51.312;7.378;2023-10-19T11:18:04;95295.91;;;17.61;100.00
5872;BME280;2962;51.312;7.378;2023-10-19T11:20:30;95294.47;;;16.99;100.00
5872;BME280;2962;51.312;7.378;2023-10-19T11:22:57;95287.31;;;16.74;100.00
5872;BME280;2962;51.312;7.378;2023-10-19T11:25:26;95285.66;;;16.49;100.00
5872;BME280;2962;51.312;7.378;2023-10-19T11:27:59;95285.22;;;16.23;100.00
5872;BME280;2962;51.312;7.378;2023-10-19T11:30:28;95283.06;;;16.46;100.00
5872;BME280;2962;51.312;7.378;2023-10-19T11:32:55;95277.84;;;16.66;100.00
5872;BME280;2962;51.312;7.378;2023-10-19T11:35:29;95281.81;;;16.83;100.00
5872;BME280;2962;51.312;7.378;2023-10-19T11:37:59;95278.25;;;17.01;100.00
5872;BME280;2962;51.312;7.378;2023-10-19T11:40:26;95276.06;;;17.15;100.00
5872;BME280;2962;51.312;7.378;2023-10-19T11:42:52;95270.00;;;17.68;100.00
5872;BME280;2962;51.312;7.378;2023-10-19T11:45:21;95265.75;;;18.15;100.00
5872;BME280;2962;51.312;7.378;2023-10-19T11:47:46;95261.53;;;18.58;100.00
5872;BME280;2962;51.312;7.378;2023-10-19T11:50:12;95263.16;;;18.50;100.00
5872;BME280;2962;51.312;7.378;2023-10-19T11:52:39;95253.41;;;18.25;100.00
5872;BME280;2962;51.312;7.378;2023-10-19T11:55:05;95252.81;;;17.82;100.00
5872;BME280;2962;51.312;7.378;2023-10-19T11:57:31;95248.75;;;17.35;100.00
5872;BME280;2962;51.312;7.378;2023-10-19T11:59:56;95254.47;;;16.80;100.00
5872;BME280;2962;51.312;7.378;2023-10-19T12:02:22;95246.88;;;16.47;100.00
5872;BME280;2962;51.312;7.378;2023-10-19T12:04:47;95235.53;;;16.64;100.00
5872;BME280;2962;51.312;7.378;2023-10-19T12:07:12;95208.88;;;16.97;100.00
5872;BME280;2962;51.312;7.378;2023-10-19T12:09:38;95229.56;;;17.26;100.00
5872;BME280;2962;51.312;7.378;2023-10-19T12:12:06;95212.53;;;17.03;100.00
5872;BME280;2962;51.312;7.378;2023-10-19T12:14:32;95208.63;;;16.86;100.00
5872;BME280;2962;51.312;7.378;2023-10-19T12:17:00;95222.56;;;16.73;100.00
5872;BME280;2962;51.312;7.378;2023-10-19T12:19:29;95221.66;;;16.58;100.00
5872;BME280;2962;51.312;7.378;2023-10-19T12:21:55;95225.84;;;16.26;100.00
5872;BME280;2962;51.312;7.378;2023-10-19T12:24:20;95218.97;;;16.12;100.00
5872;BME280;2962;51.312;7.378;2023-10-19T12:26:46;95220.50;;;16.13;100.00
5872;BME280;2962;51.312;7.378;2023-10-19T12:29:11;95210.25;;;16.14;100.00
5872;BME280;2962;51.312;7.378;2023-10-19T12:31:39;95213.78;;;15.96;100.00
5872;BME280;2962;51.312;7.378;2023-10-19T12:34:06;95206.00;;;15.85;100.00
5872;BME280;2962;51.312;7.378;2023-10-19T12:36:31;95212.25;;;15.76;100.00
5872;BME280;2962;51.312;7.378;2023-10-19T12:38:57;95226.72;;;15.68;100.00
5872;BME280;2962;51.312;7.378;2023-10-19T12:41:23;95232.78;;;15.53;100.00
5872;BME280;2962;51.312;7.378;2023-10-19T12:43:49;95238.84;;;15.39;100.00
5872;BME280;2962;51.312;7.378;2023-10-19T12:46:17;95261.69;;;15.27;100.00
5872;BME280;2962;51.312;7.378;2023-10-19T12:48:44;95253.25;;;15.12;100.00
5872;BME280;2962;51.312;7.378;2023-10-19T12:51:12;95246.50;;;15.04;100.00
5872;BME280;2962;51.312;7.378;2023-10-19T12:53:38;95235.94;;;14.93;100.00
5872;BME280;2962;51.312;7.378;2023-10-19T12:56:05;95240.94;;;14.85;100.00
5872;BME280;2962;51.312;7.378;2023-10-19T12:58:31;95219.72;;;14.77;100.00
5872;BME280;2962;51.312;7.378;2023-10-19T13:00:57;95228.72;;;14.77;100.00
5872;BME280;2962;51.312;7.378;2023-10-19T13:03:24;95229.75;;;14.71;100.00
5872;BME280;2962;51.312;7.378;2023-10-19T13:05:52;95203.06;;;14.62;100.00
5872;BME280;2962;51.312;7.378;2023-10-19T13:08:18;95210.53;;;14.61;100.00
5872;BME280;2962;51.312;7.378;2023-10-19T13:10:47;95217.06;;;14.64;100.00
5872;BME280;2962;51.312;7.378;2023-10-19T13:13:14;95215.66;;;14.59;100.00
5872;BME280;2962;51.312;7.378;2023-10-19T13:15:44;95224.84;;;14.65;100.00
5872;BME280;2962;51.312;7.378;2023-10-19T13:18:11;95214.63;;;14.57;100.00
5872;BME280;2962;51.312;7.378;2023-10-19T13:20:38;95226.34;;;14.57;100.00
5872;BME280;2962;51.312;7.378;2023-10-19T13:23:05;95236.53;;;14.57;100.00
5872;BME280;2962;51.312;7.378;2023-10-19T13:25:38;95235.22;;;14.49;100.00